METAR stanice u blizini

 

LYBE - Beograd / Surčin, Srbija
Ažurirano: 30/05/2020 01:00
Vedro
Vedro
 Pravac vetra ZJZ
Vetar: ZJZ 13 km/h
Temperatura: 12°C
Tačka rose: 12°C
Vlažnost: 100%
Pritisak: 1018 hPa
Pregled: Vedro
Vidljivost: greater than 10 km
2020/05/29 23:00 LYBE 292300Z 25007KT CAVOK 12/12 Q1018 NOSIG
LYBT - Beograd / Batajnica, Srbija
Ažurirano: 30/05/2020 01:00
Vedro
Vedro
 Pravac vetra ZJZ
Vetar: ZJZ 9 km/h
Temperatura: 12°C
Tačka rose: 12°C
Vlažnost: 100%
Pritisak: 1017 hPa
Pregled: Vedro
Vidljivost: greater than 10 km
2020/05/29 23:00 LYBT 292300Z 24005KT CAVOK 12/12 Q1017 NOSIG
LYVR - Vršac, Srbija
Ažurirano: 30/05/2020 01:00
Vedro
Vedro
 Pravac vetra varies
Vetar: varies 4 km/h
Temperatura: 12°C
Tačka rose: 12°C
Vlažnost: 100%
Pritisak: 1017 hPa
Pregled: Vedro
Vidljivost: greater than 10 km
2020/05/29 23:00 LYVR 292300Z AUTO VRB02KT CAVOK 12/12 Q1017
 
LYKV - Lađevci, Srbija
Ažurirano: 30/05/2020 01:00
Partly Cloudy
Partly Cloudy
 Pravac vetra varies
Vetar: varies 2 km/h
Temperatura: 13°C
Tačka rose: 13°C
Vlažnost: 100%
Pritisak: 1018 hPa
Oblaci: Partly Cloudy
Vidljivost: 10 km
Cloud details: Partly Cloudy 1219 m
2020/05/29 23:00 LYKV 292300Z VRB01KT 9999 SCT040 13/13 Q1018 NOSIG
LYNI - Niš, Srbija
Ažurirano: 30/05/2020 01:00
Few Clouds
Few Clouds
 Pravac vetra varies
Vetar: varies 4 km/h
Temperatura: 10°C
Tačka rose: 9°C
Vlažnost: 94%
Pritisak: 1018 hPa
Oblaci: Few Clouds
Vidljivost: 10 km
Cloud details: Few Clouds 1219 m
2020/05/29 23:00 LYNI 292300Z VRB02KT 9999 FEW040 10/09 Q1018 NOSIG
BKPR - Priština, Srbija
Ažurirano: 30/05/2020 01:00
Mostly Cloudy
Mostly Cloudy
 Pravac vetra calm
Vetar: Tišina
Temperatura: 9°C
Tačka rose: 7°C
Vlažnost: 87%
Pritisak: 1018 hPa
Oblaci: Mostly Cloudy
Vidljivost: 10 km
Cloud details: Mostly Cloudy 1524 m
2020/05/29 23:00 BKPR 292300Z 00000KT 9999 BKN050 09/07 Q1018 NOSIG
 
LHPP - Pecs / Pogany, Hungary
Ažurirano: 29/05/2020 19:15
NOT Current
Vedro
Vedro
 Pravac vetra S
Vetar: S 13 km/h
Temperatura: 15°C
Tačka rose: 10°C
Vlažnost: 72%
Pritisak: 1018 hPa
Pregled: Vedro
Vidljivost: greater than 10 km
2020/05/29 17:15 LHPP 291715Z 36007KT CAVOK 15/10 Q1018
LHUD - Szeged, Hungary
Ažurirano: 04/07/2019 01:45
NOT Current
Vedro
Vedro
 Pravac vetra S
Vetar: S 7 km/h
Temperatura: 18°C
Tačka rose: 13°C
Vlažnost: 73%
Pritisak: 1019 hPa
Pregled: Vedro
Vidljivost: greater than 10 km
2019/07/03 23:45 LHUD 032345Z 35004KT CAVOK 18/13 Q1019
LRTR - Timisoara, Romania
Ažurirano: 30/05/2020 01:00
Vedro
Vedro
 Pravac vetra ZSZ
Vetar: ZSZ 9 km/h
Temperatura: 11°C
Tačka rose: 11°C
Vlažnost: 100%
Pritisak: 1016 hPa
Pregled: Vedro
Vidljivost: greater than 10 km
2020/05/29 23:00 LRTR 292300Z 30005KT CAVOK 11/11 Q1016
 
LRCV - Craiova, Romania
Ažurirano: 30/05/2020 01:00
Vedro
Vedro
 Pravac vetra ISI
Vetar: ISI 6 km/h
Temperatura: 13°C
Tačka rose: 10°C
Vlažnost: 82%
Pritisak: 1013 hPa
Pregled: Vedro
Vidljivost: greater than 10 km
2020/05/29 23:00 LRCV 292300Z 06003KT CAVOK 13/10 Q1013
LBSF - Sofia, Bulgaria
Ažurirano: 30/05/2020 01:00
Few Clouds
Few Clouds
 Pravac vetra SZ
Vetar: SZ 17 km/h
Temperatura: 10°C
Osećaj hladnoće: 8°C
Tačka rose: 7°C
Vlažnost: 82%
Pritisak: 1016 hPa
Oblaci: Few Clouds
Vidljivost: 10 km
Cloud details: Few Clouds 914 m
2020/05/29 23:00 LBSF 292300Z 31009KT 9999 FEW030 10/07 Q1016 NOSIG
LWSK - Skoplje, Makedonija
Ažurirano: 30/05/2020 00:30
Partly Cloudy
Partly Cloudy
 Pravac vetra Z
Vetar: Z 6 km/h
Temperatura: 12°C
Tačka rose: 9°C
Vlažnost: 82%
Pritisak: 1018 hPa
Oblaci: Partly Cloudy
Vidljivost: 10 km
Cloud details: Few Clouds 1524 m
Partly Cloudy 3048 m
2020/05/29 22:30 LWSK 292230Z 27003KT 9999 FEW050 SCT100 12/09 Q1018 NOSIG
 
LYPG - Podgorica, Crna Gora
Ažurirano: 30/05/2020 01:00
Partly Cloudy
Partly Cloudy
 Pravac vetra SI
Vetar: SI 6 km/h
Temperatura: 17°C
Tačka rose: 10°C
Vlažnost: 64%
Pritisak: 1017 hPa
Oblaci: Partly Cloudy
Vidljivost: 10 km
Cloud details: Few Clouds 1006 m
Partly Cloudy 2438 m
2020/05/29 23:00 LYPG 292300Z 05003KT 9999 FEW033 SCT080 17/10 Q1017 NOSIG
LQSA - Sarajevo, Bosna i Hercegovina
Ažurirano: 29/05/2020 17:00
NOT Current
Partly Cloudy
Partly Cloudy
 Pravac vetra SZ
Vetar: SZ 7 km/h
Temperatura: 17°C
Tačka rose: 9°C
Vlažnost: 59%
Pritisak: 1018 hPa
Oblaci: Partly Cloudy
Vidljivost: 10 km
Cloud details: Few Clouds 1219 m
Partly Cloudy 1524 m
2020/05/29 15:00 LQSA 291500Z 32004KT 260V010 9999 FEW040TCU SCT050 17/09 Q1018
LDOS - Osijek, Hrvatksa
Ažurirano: 30/05/2020 01:00
Vedro
Vedro
 Pravac vetra Z
Vetar: Z 13 km/h
Temperatura: 13°C
Tačka rose: 12°C
Vlažnost: 94%
Pritisak: 1018 hPa
Pregled: Vedro
Vidljivost: greater than 10 km
2020/05/29 23:00 LDOS 292300Z 28007KT CAVOK 13/12 Q1018